Time;durP1;ratioP1;P1;durP2;ratioP2;P2;SDS_P1;SDS_P2;PMS_P1;PMS_P2;Temp;Humidity;BMP_temperature;BMP_pressure;BME280_temperature;BME280_humidity;BME280_pressure;Samples;Min_cycle;Max_cycle;Signal;HPM_P1;HPM_P2
2022/10/11 00:01:42;;;;;;;16.75;10.90;;;;;;;;;;5085718;28;20167;-67
2022/10/11 00:04:09;;;;;;;26.58;11.32;;;;;;;;;;5086905;28;20085;-61
2022/10/11 00:06:36;;;;;;;16.85;10.43;;;;;;;;;;5089545;28;20379;-69
2022/10/11 00:09:03;;;;;;;21.15;12.90;;;;;;;;;;5088908;28;20028;-68
2022/10/11 00:11:28;;;;;;;16.92;11.13;;;;;;;;;;5088997;28;20114;-57
2022/10/11 00:13:54;;;;;;;19.70;12.50;;;;;;;;;;5083979;28;20167;-57
2022/10/11 00:16:19;;;;;;;18.38;11.77;;;;;;;;;;5086596;28;20475;-53
2022/10/11 00:18:45;;;;;;;19.88;13.35;;;;;;;;;;5078778;28;20028;-54
2022/10/11 00:21:13;;;;;;;17.70;11.30;;;;;;;;;;5082652;28;20031;-68
2022/10/11 00:23:39;;;;;;;16.73;11.57;;;;;;;;;;5080444;28;20052;-68
2022/10/11 00:26:07;;;;;;;26.92;12.57;;;;;;;;;;5081231;28;20047;-61
2022/10/11 00:28:33;;;;;;;18.20;12.45;;;;;;;;;;5084787;28;20504;-61
2022/10/11 00:30:58;;;;;;;18.52;11.88;;;;;;;;;;5083736;28;20073;-67
2022/10/11 00:33:24;;;;;;;19.50;12.45;;;;;;;;;;5085115;28;20038;-67
2022/10/11 00:35:49;;;;;;;16.30;12.50;;;;;;;;;;5082387;28;20044;-63
2022/10/11 00:38:15;;;;;;;21.35;13.45;;;;;;;;;;5082860;28;20340;-62
2022/10/11 00:40:40;;;;;;;22.52;12.63;;;;;;;;;;5083552;28;20040;-62
2022/10/11 00:43:15;;;;;;;19.40;12.48;;;;;;;;;;5083969;28;20060;-61
2022/10/11 00:45:55;;;;;;;18.00;12.80;;;;;;;;;;5083689;28;20056;-70
2022/10/11 00:48:34;;;;;;;19.45;12.63;;;;;;;;;;5083762;28;20024;-69
2022/10/11 00:51:03;;;;;;;21.90;13.02;;;;;;;;;;5086270;28;20452;-64
2022/10/11 00:53:30;;;;;;;17.63;12.20;;;;;;;;;;5080339;28;20044;-64
2022/10/11 00:56:13;;;;;;;20.30;11.75;;;;;;;;;;5084604;28;20092;-61
2022/10/11 00:58:40;;;;;;;;;;;;;;;;;;5083540;28;20437;-61
2022/10/11 01:01:06;;;;;;;19.52;11.48;;;;;;;;;;5082355;28;19919;-64
2022/10/11 01:03:34;;;;;;;15.23;10.52;;;;;;;;;;5080343;28;20435;-63
2022/10/11 01:06:00;;;;;;;19.75;11.68;;;;;;;;;;5084643;28;20036;-61
2022/10/11 01:08:26;;;;;;;22.02;11.00;;;;;;;;;;5082601;28;20449;-63
2022/10/11 01:10:52;;;;;;;15.93;10.25;;;;;;;;;;5079840;28;20040;-62
2022/10/11 01:13:23;;;;;;;15.60;10.57;;;;;;;;;;5080862;28;20108;-62
2022/10/11 01:16:13;;;;;;;16.25;10.57;;;;;;;;;;5081942;28;20052;-61
2022/10/11 01:18:46;;;;;;;19.60;11.18;;;;;;;;;;5081671;28;20028;-63
2022/10/11 01:21:39;;;;;;;14.57;9.73;;;;;;;;;;5084107;28;20028;-62
2022/10/11 01:24:18;;;;;;;16.00;9.77;;;;;;;;;;5078515;28;20094;-62
2022/10/11 01:27:08;;;;;;;16.08;9.75;;;;;;;;;;5077503;28;20036;-68
2022/10/11 01:29:43;;;;;;;13.10;6.95;;;;;;;;;;5081799;28;20399;-68
2022/10/11 01:32:14;;;;;;;7.57;3.60;;;;;;;;;;5079074;28;20139;-62
2022/10/11 01:34:55;;;;;;;7.18;3.00;;;;;;;;;;5080700;28;20040;-59
2022/10/11 01:37:33;;;;;;;11.85;2.72;;;;;;;;;;5082523;28;20040;-66
2022/10/11 01:40:10;;;;;;;8.07;2.40;;;;;;;;;;5080200;28;20837;-66
2022/10/11 01:42:38;;;;;;;6.05;1.85;;;;;;;;;;5080488;28;20039;-61
2022/10/11 01:45:08;;;;;;;8.40;1.73;;;;;;;;;;5093007;27;20391;-61
2022/10/11 01:47:34;;;;;;;5.72;1.95;;;;;;;;;;5084091;28;20046;-57
2022/10/11 01:50:00;;;;;;;7.22;1.90;;;;;;;;;;5084636;28;20130;-61
2022/10/11 01:52:30;;;;;;;6.50;1.90;;;;;;;;;;5083944;28;20032;-60
2022/10/11 01:55:30;;;;;;;6.10;1.90;;;;;;;;;;5084017;28;20570;-64
2022/10/11 01:58:01;;;;;;;5.78;1.70;;;;;;;;;;5081386;28;20071;-62
2022/10/11 02:00:32;;;;;;;7.18;1.52;;;;;;;;;;5083383;28;20137;-65
2022/10/11 02:03:07;;;;;;;7.95;1.70;;;;;;;;;;5086543;28;20115;-64
2022/10/11 02:05:54;;;;;;;7.28;1.40;;;;;;;;;;5082507;28;20483;-61
2022/10/11 02:08:47;;;;;;;7.63;1.63;;;;;;;;;;5084307;28;20478;-61
2022/10/11 02:11:16;;;;;;;;;;;;;;;;;;5079853;28;20123;-60
2022/10/11 02:13:49;;;;;;;7.00;1.52;;;;;;;;;;5084046;28;19949;-60
2022/10/11 02:16:20;;;;;;;5.80;1.40;;;;;;;;;;5084859;28;20028;-67
2022/10/11 02:18:50;;;;;;;6.93;1.48;;;;;;;;;;5085536;28;20024;-66
2022/10/11 02:21:18;;;;;;;6.82;1.50;;;;;;;;;;5084574;28;20032;-67
2022/10/11 02:24:00;;;;;;;8.00;1.75;;;;;;;;;;5079196;28;20473;-67
2022/10/11 02:26:31;;;;;;;6.22;1.80;;;;;;;;;;5085641;28;20054;-67
2022/10/11 02:29:00;;;;;;;5.53;1.30;;;;;;;;;;5082623;28;20501;-67
2022/10/11 02:31:28;;;;;;;5.57;1.67;;;;;;;;;;5081399;28;20368;-61
2022/10/11 02:34:17;;;;;;;10.23;1.58;;;;;;;;;;5082029;28;20387;-62
2022/10/11 02:36:58;;;;;;;3.88;1.40;;;;;;;;;;5081847;28;20031;-61
2022/10/11 02:39:32;;;;;;;7.72;1.70;;;;;;;;;;5084015;28;20502;-61
2022/10/11 02:42:03;;;;;;;7.15;1.30;;;;;;;;;;5082177;28;20042;-67
2022/10/11 02:44:38;;;;;;;8.13;1.55;;;;;;;;;;5084837;28;20056;-67
2022/10/11 02:47:04;;;;;;;7.78;1.45;;;;;;;;;;5082453;28;20081;-60
2022/10/11 02:49:30;;;;;;;10.32;1.55;;;;;;;;;;5082020;28;20562;-62
2022/10/11 02:51:56;;;;;;;5.32;1.20;;;;;;;;;;5085143;28;20055;-62
2022/10/11 02:54:23;;;;;;;5.72;1.20;;;;;;;;;;5084690;28;20737;-63
2022/10/11 02:56:49;;;;;;;5.38;1.38;;;;;;;;;;5083632;28;20048;-61
2022/10/11 02:59:14;;;;;;;7.07;1.13;;;;;;;;;;5078474;28;20506;-60
2022/10/11 03:01:40;;;;;;;5.80;1.40;;;;;;;;;;5085027;28;20164;-62
2022/10/11 03:04:05;;;;;;;9.93;1.42;;;;;;;;;;5079099;28;20535;-61
2022/10/11 03:06:31;;;;;;;9.25;1.27;;;;;;;;;;5082349;28;20039;-68
2022/10/11 03:08:56;;;;;;;8.95;1.75;;;;;;;;;;5081139;28;20339;-69
2022/10/11 03:11:21;;;;;;;10.70;1.40;;;;;;;;;;5081006;28;20035;-66
2022/10/11 03:13:47;;;;;;;7.75;1.27;;;;;;;;;;5082181;28;20475;-67
2022/10/11 03:16:12;;;;;;;8.30;1.40;;;;;;;;;;5081938;28;20117;-67
2022/10/11 03:18:38;;;;;;;9.98;1.92;;;;;;;;;;5074585;28;20383;-67
2022/10/11 03:21:03;;;;;;;8.07;1.50;;;;;;;;;;5081292;28;20108;-67
2022/10/11 03:23:28;;;;;;;6.70;1.80;;;;;;;;;;5083476;28;20048;-67
2022/10/11 03:25:54;;;;;;;9.32;1.40;;;;;;;;;;5083712;28;20051;-67
2022/10/11 03:28:20;;;;;;;8.85;1.65;;;;;;;;;;5082239;28;20048;-67
2022/10/11 03:30:47;;;;;;;4.60;1.48;;;;;;;;;;5083822;28;20039;-61
2022/10/11 03:33:13;;;;;;;6.18;1.60;;;;;;;;;;5081435;28;20394;-60
2022/10/11 03:35:39;;;;;;;9.80;1.80;;;;;;;;;;5081928;28;20042;-62
2022/10/11 03:38:05;;;;;;;9.20;2.03;;;;;;;;;;5077337;28;20055;-64
2022/10/11 03:40:30;;;;;;;6.72;1.73;;;;;;;;;;5078290;28;20052;-61
2022/10/11 03:42:56;;;;;;;6.55;1.60;;;;;;;;;;5080557;28;20040;-63
2022/10/11 03:45:22;;;;;;;6.15;1.48;;;;;;;;;;5080918;28;20078;-62
2022/10/11 03:47:48;;;;;;;3.80;1.23;;;;;;;;;;5082534;28;20040;-61
2022/10/11 03:50:14;;;;;;;13.45;1.90;;;;;;;;;;5077844;28;20051;-61
2022/10/11 03:52:39;;;;;;;7.97;1.92;;;;;;;;;;5076100;28;20139;-61
2022/10/11 03:55:06;;;;;;;7.15;1.35;;;;;;;;;;5082310;28;20394;-61
2022/10/11 03:57:31;;;;;;;5.28;1.40;;;;;;;;;;5083883;28;20035;-66
2022/10/11 03:59:56;;;;;;;9.80;1.50;;;;;;;;;;5083783;28;20028;-66
2022/10/11 04:02:22;;;;;;;9.90;1.52;;;;;;;;;;5077260;28;20117;-61
2022/10/11 04:04:47;;;;;;;7.82;1.73;;;;;;;;;;5082004;28;20051;-61
2022/10/11 04:07:13;;;;;;;10.73;2.40;;;;;;;;;;5079682;28;20462;-63
2022/10/11 04:09:38;;;;;;;7.82;1.48;;;;;;;;;;5078160;28;20481;-63
2022/10/11 04:12:03;;;;;;;10.65;1.70;;;;;;;;;;5087535;28;20097;-60
2022/10/11 04:14:29;;;;;;;8.23;1.30;;;;;;;;;;5083133;28;20040;-61
2022/10/11 04:16:55;;;;;;;10.15;1.55;;;;;;;;;;5082891;28;20051;-67
2022/10/11 04:19:20;;;;;;;8.35;1.90;;;;;;;;;;5078787;28;20058;-67
2022/10/11 04:21:45;;;;;;;7.75;1.52;;;;;;;;;;5085266;28;20039;-60
2022/10/11 04:24:11;;;;;;;9.25;1.40;;;;;;;;;;5083000;28;20036;-60
2022/10/11 04:26:37;;;;;;;7.03;1.52;;;;;;;;;;5085258;28;20152;-56
2022/10/11 04:29:03;;;;;;;8.57;1.67;;;;;;;;;;5102078;27;20605;-58
2022/10/11 04:31:29;;;;;;;6.13;1.13;;;;;;;;;;5084613;28;20048;-62
2022/10/11 04:33:55;;;;;;;7.32;1.45;;;;;;;;;;5082354;28;20604;-61
2022/10/11 04:36:21;;;;;;;11.38;1.55;;;;;;;;;;5083937;28;20435;-66
2022/10/11 04:38:46;;;;;;;11.30;1.33;;;;;;;;;;5079471;28;20055;-66
2022/10/11 04:41:13;;;;;;;7.18;1.67;;;;;;;;;;5083250;28;20090;-61
2022/10/11 04:43:38;;;;;;;7.72;1.50;;;;;;;;;;5084723;28;20052;-61
2022/10/11 04:46:05;;;;;;;8.30;2.17;;;;;;;;;;5084706;28;20372;-62
2022/10/11 04:48:30;;;;;;;9.13;1.98;;;;;;;;;;5084730;28;20489;-62
2022/10/11 04:50:56;;;;;;;7.70;2.03;;;;;;;;;;5083479;28;20020;-67
2022/10/11 04:53:21;;;;;;;8.10;1.90;;;;;;;;;;5086136;28;20036;-67
2022/10/11 04:56:03;;;;;;;10.75;1.67;;;;;;;;;;5085412;28;20059;-57
2022/10/11 04:58:31;;;;;;;10.00;1.75;;;;;;;;;;5081728;28;20042;-57
2022/10/11 05:00:57;;;;;;;5.65;1.33;;;;;;;;;;5076512;28;20492;-69
2022/10/11 05:03:22;;;;;;;5.07;1.55;;;;;;;;;;5091055;28;20032;-69
2022/10/11 05:05:48;;;;;;;9.60;1.65;;;;;;;;;;5085210;28;20051;-66
2022/10/11 05:08:14;;;;;;;9.45;1.80;;;;;;;;;;5085013;28;20406;-67
2022/10/11 05:10:39;;;;;;;6.78;1.05;;;;;;;;;;5085047;28;20131;-57
2022/10/11 05:13:05;;;;;;;6.32;1.50;;;;;;;;;;5085045;28;20160;-58
2022/10/11 05:15:30;;;;;;;7.75;1.40;;;;;;;;;;5084973;28;20028;-68
2022/10/11 05:17:56;;;;;;;9.00;1.50;;;;;;;;;;5086274;28;20439;-69
2022/10/11 05:20:22;;;;;;;9.63;1.92;;;;;;;;;;5086320;28;20040;-68
2022/10/11 05:22:47;;;;;;;11.70;1.55;;;;;;;;;;5073792;28;20047;-69
2022/10/11 05:25:13;;;;;;;6.90;1.23;;;;;;;;;;5085725;28;20115;-68
2022/10/11 05:27:38;;;;;;;8.18;1.73;;;;;;;;;;5085122;28;20036;-55
2022/10/11 05:30:05;;;;;;;6.68;1.20;;;;;;;;;;5093333;28;20028;-57
2022/10/11 05:32:30;;;;;;;6.88;1.40;;;;;;;;;;5086034;28;20052;-56
2022/10/11 05:34:56;;;;;;;8.27;1.63;;;;;;;;;;5082484;28;20138;-55
2022/10/11 05:37:21;;;;;;;12.32;1.67;;;;;;;;;;5079807;28;20051;-61
2022/10/11 05:39:47;;;;;;;7.53;1.50;;;;;;;;;;5081648;28;20040;-61
2022/10/11 05:42:12;;;;;;;14.65;1.80;;;;;;;;;;5086966;28;20036;-55
2022/10/11 05:44:38;;;;;;;13.48;1.70;;;;;;;;;;5083582;28;20289;-56
2022/10/11 05:47:03;;;;;;;11.18;1.60;;;;;;;;;;5085260;28;20158;-66
2022/10/11 05:49:29;;;;;;;9.65;1.27;;;;;;;;;;5088018;28;20040;-66
2022/10/11 05:51:54;;;;;;;7.50;1.45;;;;;;;;;;5086717;28;20320;-66
2022/10/11 05:54:21;;;;;;;15.18;2.13;;;;;;;;;;5086519;28;20496;-66
2022/10/11 05:56:47;;;;;;;8.20;1.27;;;;;;;;;;5084696;28;20765;-71
2022/10/11 05:59:12;;;;;;;9.93;1.58;;;;;;;;;;5085644;28;20044;-71
2022/10/11 06:01:38;;;;;;;11.88;1.88;;;;;;;;;;5079682;28;20044;-59
2022/10/11 06:04:04;;;;;;;7.78;1.30;;;;;;;;;;5083622;28;20121;-58
2022/10/11 06:06:29;;;;;;;5.35;1.45;;;;;;;;;;5084313;28;20032;-66
2022/10/11 06:08:55;;;;;;;8.55;1.80;;;;;;;;;;5087303;28;20423;-65
2022/10/11 06:11:25;;;;;;;9.68;1.63;;;;;;;;;;5084533;28;20149;-67
2022/10/11 06:13:56;;;;;;;10.65;2.70;;;;;;;;;;5081000;28;20043;-67
2022/10/11 06:16:22;;;;;;;9.43;1.80;;;;;;;;;;5082534;28;20039;-55
2022/10/11 06:18:48;;;;;;;6.43;1.70;;;;;;;;;;5076578;28;20429;-55
2022/10/11 06:21:14;;;;;;;9.70;1.83;;;;;;;;;;5081840;28;20070;-65
2022/10/11 06:23:39;;;;;;;9.68;1.58;;;;;;;;;;5085365;28;20379;-65
2022/10/11 06:26:07;;;;;;;10.45;1.33;;;;;;;;;;5078772;28;20097;-61
2022/10/11 06:28:34;;;;;;;6.60;1.38;;;;;;;;;;5083588;28;20044;-61
2022/10/11 06:31:02;;;;;;;7.63;1.40;;;;;;;;;;5082149;28;20066;-64
2022/10/11 06:33:28;;;;;;;13.55;1.67;;;;;;;;;;5081526;28;20081;-65
2022/10/11 06:36:00;;;;;;;12.57;1.80;;;;;;;;;;5080968;28;20099;-70
2022/10/11 06:38:26;;;;;;;11.47;2.00;;;;;;;;;;5081033;28;20075;-70
2022/10/11 06:40:51;;;;;;;9.40;1.40;;;;;;;;;;5082963;28;20059;-69
2022/10/11 06:43:17;;;;;;;11.68;1.80;;;;;;;;;;5084072;28;20093;-68
2022/10/11 06:45:42;;;;;;;10.10;1.60;;;;;;;;;;5085363;28;20034;-66
2022/10/11 06:48:08;;;;;;;6.68;1.42;;;;;;;;;;5089656;28;20721;-67
2022/10/11 06:50:33;;;;;;;10.18;1.50;;;;;;;;;;5083289;28;20377;-61
2022/10/11 06:52:59;;;;;;;17.27;2.33;;;;;;;;;;5083482;28;20407;-61
2022/10/11 06:55:25;;;;;;;13.50;1.85;;;;;;;;;;5082742;28;20041;-62
2022/10/11 06:57:50;;;;;;;10.90;1.38;;;;;;;;;;5085033;28;20051;-63
2022/10/11 07:00:16;;;;;;;12.55;1.90;;;;;;;;;;5084263;28;20024;-63
2022/10/11 07:02:42;;;;;;;7.78;1.40;;;;;;;;;;5083991;28;20040;-63
2022/10/11 07:05:07;;;;;;;14.50;2.17;;;;;;;;;;5082161;28;20044;-62
2022/10/11 07:07:33;;;;;;;13.02;1.95;;;;;;;;;;5085001;28;20471;-64
2022/10/11 07:09:58;;;;;;;15.45;2.08;;;;;;;;;;5083004;28;20044;-64
2022/10/11 07:12:24;;;;;;;9.45;1.35;;;;;;;;;;5082389;28;20542;-62
2022/10/11 07:14:49;;;;;;;12.77;2.35;;;;;;;;;;5077478;28;20475;-63
2022/10/11 07:17:14;;;;;;;9.82;1.67;;;;;;;;;;5075978;28;20106;-58
2022/10/11 07:19:40;;;;;;;7.03;1.33;;;;;;;;;;5082326;28;20509;-57
2022/10/11 07:22:05;;;;;;;8.77;1.48;;;;;;;;;;5081873;28;20052;-65
2022/10/11 07:24:31;;;;;;;11.73;1.95;;;;;;;;;;5080266;28;20408;-65
2022/10/11 07:26:56;;;;;;;14.85;1.70;;;;;;;;;;5080260;28;20031;-63
2022/10/11 07:29:22;;;;;;;10.50;1.55;;;;;;;;;;5080615;28;20051;-63
2022/10/11 07:31:47;;;;;;;9.85;1.40;;;;;;;;;;5073466;28;20052;-60
2022/10/11 07:34:13;;;;;;;13.93;2.17;;;;;;;;;;5079224;28;20275;-61
2022/10/11 07:36:38;;;;;;;10.77;1.50;;;;;;;;;;5081552;28;20061;-65
2022/10/11 07:39:05;;;;;;;9.25;1.35;;;;;;;;;;5082144;28;20093;-66
2022/10/11 07:41:30;;;;;;;9.27;1.35;;;;;;;;;;5081704;28;20051;-61
2022/10/11 07:43:56;;;;;;;10.38;2.17;;;;;;;;;;5079933;28;20127;-60
2022/10/11 07:46:21;;;;;;;13.52;2.15;;;;;;;;;;5081657;28;20479;-61
2022/10/11 07:48:48;;;;;;;8.38;1.40;;;;;;;;;;5085606;28;20469;-62
2022/10/11 07:51:18;;;;;;;10.60;1.30;;;;;;;;;;5080125;28;20062;-57
2022/10/11 07:53:46;;;;;;;6.55;1.40;;;;;;;;;;5085577;28;20047;-57
2022/10/11 07:56:14;;;;;;;7.38;1.48;;;;;;;;;;5085836;28;20515;-59
2022/10/11 07:58:40;;;;;;;11.25;1.40;;;;;;;;;;5085757;28;20053;-60
2022/10/11 08:01:06;;;;;;;9.05;1.50;;;;;;;;;;5086350;28;20060;-66
2022/10/11 08:03:32;;;;;;;10.75;1.30;;;;;;;;;;5086511;28;20135;-66
2022/10/11 08:06:02;;;;;;;13.07;1.90;;;;;;;;;;5087760;28;20123;-60
2022/10/11 08:08:28;;;;;;;12.88;1.90;;;;;;;;;;5086424;28;20048;-60
2022/10/11 08:10:53;;;;;;;14.52;2.10;;;;;;;;;;5078381;28;20056;-67
2022/10/11 08:13:19;;;;;;;9.55;1.30;;;;;;;;;;5085058;28;20090;-67
2022/10/11 08:15:44;;;;;;;8.23;1.40;;;;;;;;;;5087536;28;20039;-60
2022/10/11 08:18:10;;;;;;;10.73;1.60;;;;;;;;;;5087033;28;20031;-59
2022/10/11 08:20:37;;;;;;;9.70;1.77;;;;;;;;;;5088376;28;20088;-63
2022/10/11 08:23:03;;;;;;;10.40;1.83;;;;;;;;;;5087163;28;20162;-62
2022/10/11 08:25:28;;;;;;;11.23;1.65;;;;;;;;;;5087475;28;20546;-59
2022/10/11 08:27:54;;;;;;;10.77;1.38;;;;;;;;;;5084471;28;20047;-56
2022/10/11 08:30:19;;;;;;;6.47;1.52;;;;;;;;;;5091520;28;20016;-56
2022/10/11 08:32:44;;;;;;;15.27;2.38;;;;;;;;;;5090474;28;20035;-56
2022/10/11 08:35:10;;;;;;;7.07;1.52;;;;;;;;;;5090430;28;20063;-58
2022/10/11 08:37:35;;;;;;;12.07;2.03;;;;;;;;;;5090267;28;20039;-66
2022/10/11 08:40:02;;;;;;;4.90;1.00;;;;;;;;;;5091246;28;20406;-66
2022/10/11 08:42:59;;;;;;;8.98;1.63;;;;;;;;;;5086709;28;20035;-60
2022/10/11 08:45:43;;;;;;;9.50;1.48;;;;;;;;;;5069427;28;20109;-58
2022/10/11 08:48:32;;;;;;;4.03;1.10;;;;;;;;;;5089613;28;20039;-59
2022/10/11 08:50:58;;;;;;;6.85;1.30;;;;;;;;;;5088150;28;20040;-61
2022/10/11 08:53:32;;;;;;;10.05;1.63;;;;;;;;;;5081563;28;20036;-61
2022/10/11 08:55:58;;;;;;;7.75;1.17;;;;;;;;;;5088482;28;20036;-59
2022/10/11 08:58:36;;;;;;;9.85;1.50;;;;;;;;;;5082855;28;20070;-59
2022/10/11 09:01:03;;;;;;;6.47;1.27;;;;;;;;;;5084545;28;20040;-60
2022/10/11 09:03:39;;;;;;;7.22;1.33;;;;;;;;;;5083764;28;20441;-58
2022/10/11 09:06:23;;;;;;;9.60;1.50;;;;;;;;;;5085980;28;20020;-59
2022/10/11 09:09:13;;;;;;;7.70;1.20;;;;;;;;;;5084283;28;20036;-57
2022/10/11 09:11:56;;;;;;;11.15;1.65;;;;;;;;;;5080885;28;20024;-59
2022/10/11 09:14:35;;;;;;;9.45;1.58;;;;;;;;;;5085019;28;20067;-58
2022/10/11 09:17:25;;;;;;;8.02;1.60;;;;;;;;;;5086891;28;20059;-59
2022/10/11 09:20:12;;;;;;;9.57;1.23;;;;;;;;;;5078806;28;20052;-59
2022/10/11 09:22:52;;;;;;;8.85;1.15;;;;;;;;;;5083295;28;20393;-58
2022/10/11 09:25:18;;;;;;;7.88;1.58;;;;;;;;;;5085486;28;20056;-59
2022/10/11 09:28:12;;;;;;;11.90;1.80;;;;;;;;;;5078257;28;20047;-60
2022/10/11 09:30:39;;;;;;;;;;;;;;;;;;5087757;28;20500;-60
2022/10/11 09:33:07;;;;;;;8.27;1.20;;;;;;;;;;5085318;28;20394;-58
2022/10/11 09:35:39;;;;;;;9.82;1.75;;;;;;;;;;5083206;28;20556;-60
2022/10/11 09:38:23;;;;;;;11.13;1.83;;;;;;;;;;5088151;28;20048;-60
2022/10/11 09:41:36;;;;;;;7.88;1.48;;;;;;;;;;5088239;28;20040;-58
2022/10/11 09:44:01;;;;;;;8.02;1.50;;;;;;;;;;5062461;28;20462;-59
2022/10/11 09:46:33;;;;;;;7.07;1.23;;;;;;;;;;5083204;28;20052;-60
2022/10/11 09:49:01;;;;;;;8.57;1.38;;;;;;;;;;5085964;28;20050;-59
2022/10/11 09:51:27;;;;;;;7.47;1.38;;;;;;;;;;5087028;28;20383;-60
2022/10/11 09:53:57;;;;;;;8.23;1.80;;;;;;;;;;5087866;28;20043;-60
2022/10/11 09:56:24;;;;;;;23.52;2.95;;;;;;;;;;5090649;28;20097;-57
2022/10/11 09:59:24;;;;;;;9.38;1.45;;;;;;;;;;5085540;28;20040;-59
2022/10/11 10:02:15;;;;;;;7.32;1.45;;;;;;;;;;5076030;28;20075;-60
2022/10/11 10:05:01;;;;;;;9.85;1.73;;;;;;;;;;5083151;28;20391;-59
2022/10/11 10:07:29;;;;;;;9.43;1.23;;;;;;;;;;5082118;28;20123;-58
2022/10/11 10:09:55;;;;;;;9.35;1.58;;;;;;;;;;5083160;28;20060;-60
2022/10/11 10:12:25;;;;;;;8.25;1.40;;;;;;;;;;5080208;28;20063;-58
2022/10/11 10:15:16;;;;;;;8.25;1.50;;;;;;;;;;5080388;28;20410;-59
2022/10/11 10:17:48;;;;;;;8.25;1.38;;;;;;;;;;5080346;28;20052;-60
2022/10/11 10:20:23;;;;;;;6.40;1.10;;;;;;;;;;5086528;28;20135;-60
2022/10/11 10:22:49;;;;;;;9.95;1.95;;;;;;;;;;5085108;28;20123;-60
2022/10/11 10:25:35;;;;;;;5.65;1.38;;;;;;;;;;5081528;28;20513;-60
2022/10/11 10:28:03;;;;;;;6.95;1.10;;;;;;;;;;5077407;28;20499;-60
2022/10/11 10:30:29;;;;;;;9.88;1.45;;;;;;;;;;5079542;28;20036;-60
2022/10/11 10:32:59;;;;;;;6.93;1.58;;;;;;;;;;5078784;28;20042;-60
2022/10/11 10:35:27;;;;;;;7.10;1.55;;;;;;;;;;5082003;28;20040;-60
2022/10/11 10:38:02;;;;;;;4.55;1.00;;;;;;;;;;5076765;28;20063;-59
2022/10/11 10:40:36;;;;;;;7.32;1.50;;;;;;;;;;5078948;28;20068;-57
2022/10/11 10:43:02;;;;;;;9.07;1.35;;;;;;;;;;5083372;28;20066;-60
2022/10/11 10:45:43;;;;;;;10.88;1.23;;;;;;;;;;5078940;28;20052;-60
2022/10/11 10:48:08;;;;;;;17.73;1.90;;;;;;;;;;5082149;28;20612;-60
2022/10/11 10:50:48;;;;;;;8.52;2.05;;;;;;;;;;5077887;28;20039;-59
2022/10/11 10:53:24;;;;;;;3.55;1.00;;;;;;;;;;5086375;28;20056;-59
2022/10/11 10:56:05;;;;;;;11.07;1.58;;;;;;;;;;5083037;28;20185;-60
2022/10/11 10:59:13;;;;;;;5.35;1.17;;;;;;;;;;5080231;28;20053;-60
2022/10/11 11:02:12;;;;;;;7.95;1.50;;;;;;;;;;5075700;28;20067;-60
2022/10/11 11:04:41;;;;;;;10.90;1.60;;;;;;;;;;5081322;28;20048;-60
2022/10/11 11:07:26;;;;;;;9.27;1.27;;;;;;;;;;5078191;28;20076;-59
2022/10/11 11:09:51;;;;;;;7.20;1.35;;;;;;;;;;5085510;28;20056;-59
2022/10/11 11:12:26;;;;;;;9.23;1.48;;;;;;;;;;5083566;28;20036;-63
2022/10/11 11:15:03;;;;;;;8.00;1.10;;;;;;;;;;5081706;28;20036;-61
2022/10/11 11:17:56;;;;;;;10.77;1.17;;;;;;;;;;5078021;28;20052;-59
2022/10/11 11:20:34;;;;;;;9.18;1.17;;;;;;;;;;5080835;28;20390;-57
2022/10/11 11:23:26;;;;;;;8.70;1.30;;;;;;;;;;5079218;28;20056;-60
2022/10/11 11:26:08;;;;;;;9.15;1.10;;;;;;;;;;5083014;28;20052;-61
2022/10/11 11:28:58;;;;;;;7.07;1.10;;;;;;;;;;5078531;28;23847;-60
2022/10/11 11:31:56;;;;;;;6.88;1.33;;;;;;;;;;5078866;28;20051;-60
2022/10/11 11:34:27;;;;;;;11.07;1.40;;;;;;;;;;5081097;28;20115;-59
2022/10/11 11:37:01;;;;;;;7.25;1.38;;;;;;;;;;5077274;28;20059;-60
2022/10/11 11:39:38;;;;;;;7.35;1.25;;;;;;;;;;5076516;28;20450;-57
2022/10/11 11:42:14;;;;;;;4.85;1.10;;;;;;;;;;5081715;28;20056;-60
2022/10/11 11:44:47;;;;;;;6.28;1.15;;;;;;;;;;5080867;28;20055;-59
2022/10/11 11:47:24;;;;;;;8.02;1.95;;;;;;;;;;5080833;28;20119;-59
2022/10/11 11:50:14;;;;;;;9.20;1.40;;;;;;;;;;5084931;28;20044;-59
2022/10/11 11:52:44;;;;;;;3.83;1.08;;;;;;;;;;5081143;28;20126;-58
2022/10/11 11:55:20;;;;;;;9.38;2.42;;;;;;;;;;5078428;28;20121;-59
2022/10/11 11:58:04;;;;;;;6.70;1.20;;;;;;;;;;5080010;28;20031;-57
2022/10/11 12:00:36;;;;;;;9.57;1.80;;;;;;;;;;5084254;28;20028;-59
2022/10/11 12:03:17;;;;;;;7.00;1.53;;;;;;;;;;5080502;28;20040;-59
2022/10/11 12:06:29;;;;;;;5.85;1.23;;;;;;;;;;5080617;28;20725;-59
2022/10/11 12:09:00;;;;;;;5.25;1.08;;;;;;;;;;5075463;28;20048;-59
2022/10/11 12:12:10;;;;;;;9.07;1.67;;;;;;;;;;5086166;28;20044;-59
2022/10/11 12:14:39;;;;;;;5.25;1.60;;;;;;;;;;5053435;28;20088;-59
2022/10/11 12:17:07;;;;;;;8.57;1.40;;;;;;;;;;5086516;28;20040;-59
2022/10/11 12:19:34;;;;;;;8.68;1.10;;;;;;;;;;5086220;28;20071;-59
2022/10/11 12:22:19;;;;;;;10.45;1.60;;;;;;;;;;5080957;28;20040;-59
2022/10/11 12:24:59;;;;;;;5.70;1.35;;;;;;;;;;5081984;28;20054;-59
2022/10/11 12:27:57;;;;;;;6.60;1.15;;;;;;;;;;5085210;28;20021;-59
2022/10/11 12:30:41;;;;;;;12.48;1.48;;;;;;;;;;5043158;28;20051;-59
2022/10/11 12:33:23;;;;;;;9.60;1.30;;;;;;;;;;5089344;28;20045;-60
2022/10/11 12:35:56;;;;;;;7.60;1.70;;;;;;;;;;5079853;28;20059;-59
2022/10/11 12:38:33;;;;;;;5.97;1.13;;;;;;;;;;5081185;28;20047;-58
2022/10/11 12:41:24;;;;;;;7.28;1.10;;;;;;;;;;5077551;28;20502;-54
2022/10/11 12:43:50;;;;;;;7.68;1.40;;;;;;;;;;5080453;28;20479;-58
2022/10/11 12:46:28;;;;;;;8.95;1.30;;;;;;;;;;5084931;28;20422;-58
2022/10/11 12:49:04;;;;;;;8.18;1.33;;;;;;;;;;5078535;28;21124;-56
2022/10/11 12:51:41;;;;;;;13.05;1.83;;;;;;;;;;5085692;28;20042;-56
2022/10/11 12:54:44;;;;;;;11.15;1.73;;;;;;;;;;5083401;28;20020;-57
2022/10/11 12:57:31;;;;;;;8.63;1.40;;;;;;;;;;5040470;28;20502;-55
2022/10/11 13:00:19;;;;;;;9.48;1.35;;;;;;;;;;5075476;28;20059;-56
2022/10/11 13:02:45;;;;;;;4.15;1.20;;;;;;;;;;5078839;28;20048;-51
2022/10/11 13:05:30;;;;;;;6.18;1.00;;;;;;;;;;5081270;28;20052;-58
2022/10/11 13:07:58;;;;;;;6.63;1.08;;;;;;;;;;5079874;28;20561;-56
2022/10/11 13:10:30;;;;;;;9.25;1.10;;;;;;;;;;5079491;28;20070;-53
2022/10/11 13:12:58;;;;;;;12.05;1.85;;;;;;;;;;5083596;28;20435;-55
2022/10/11 13:15:25;;;;;;;9.13;1.50;;;;;;;;;;5084461;28;20032;-55
2022/10/11 13:17:57;;;;;;;7.63;1.67;;;;;;;;;;5080793;28;20144;-56
2022/10/11 13:20:27;;;;;;;9.27;1.33;;;;;;;;;;5087139;28;20048;-59
2022/10/11 13:22:54;;;;;;;11.02;1.40;;;;;;;;;;5077417;28;20729;-57
2022/10/11 13:25:26;;;;;;;8.95;1.42;;;;;;;;;;5081192;28;20232;-66
2022/10/11 13:27:53;;;;;;;7.25;1.67;;;;;;;;;;5084967;28;20402;-57
2022/10/11 13:30:30;;;;;;;9.05;1.60;;;;;;;;;;5087964;28;20403;-54
2022/10/11 13:32:57;;;;;;;8.05;1.35;;;;;;;;;;5083806;28;20047;-58
2022/10/11 13:35:27;;;;;;;7.30;1.45;;;;;;;;;;5087406;28;20042;-58
2022/10/11 13:37:53;;;;;;;5.75;1.00;;;;;;;;;;5077645;28;20059;-58
2022/10/11 13:40:20;;;;;;;5.45;1.10;;;;;;;;;;5087485;28;20055;-58
2022/10/11 13:42:48;;;;;;;5.63;1.20;;;;;;;;;;5074299;28;20359;-56
2022/10/11 13:45:19;;;;;;;3.80;1.00;;;;;;;;;;5078439;28;20082;-56
2022/10/11 13:47:46;;;;;;;6.25;1.20;;;;;;;;;;5080190;28;20093;-57
2022/10/11 13:50:15;;;;;;;6.45;1.92;;;;;;;;;;5084201;28;20051;-55
2022/10/11 13:52:52;;;;;;;8.07;1.40;;;;;;;;;;5075726;28;20087;-57
2022/10/11 13:55:22;;;;;;;10.95;1.38;;;;;;;;;;5081541;28;20407;-57
2022/10/11 13:57:50;;;;;;;9.57;2.03;;;;;;;;;;5082639;28;20120;-56
2022/10/11 14:00:16;;;;;;;7.50;1.88;;;;;;;;;;5085627;28;20390;-57
2022/10/11 14:03:15;;;;;;;11.20;1.60;;;;;;;;;;5086629;28;20056;-54
2022/10/11 14:05:52;;;;;;;7.72;1.40;;;;;;;;;;5080994;28;20126;-54
2022/10/11 14:08:24;;;;;;;3.35;1.25;;;;;;;;;;5083382;28;20448;-54
2022/10/11 14:10:50;;;;;;;10.13;1.45;;;;;;;;;;5081218;28;20375;-56
2022/10/11 14:13:29;;;;;;;7.25;1.23;;;;;;;;;;5082641;28;20130;-55
2022/10/11 14:16:17;;;;;;;5.30;1.15;;;;;;;;;;5078873;28;20067;-58
2022/10/11 14:18:44;;;;;;;8.68;1.20;;;;;;;;;;5082666;28;20032;-56
2022/10/11 14:21:19;;;;;;;8.98;1.45;;;;;;;;;;5082709;28;20035;-57
2022/10/11 14:23:53;;;;;;;7.03;1.02;;;;;;;;;;5084504;28;20032;-56
2022/10/11 14:26:19;;;;;;;6.90;1.17;;;;;;;;;;5083537;28;20059;-57
2022/10/11 14:28:48;;;;;;;5.88;1.23;;;;;;;;;;5080649;28;20044;-57
2022/10/11 14:31:14;;;;;;;6.85;1.55;;;;;;;;;;5078086;28;20563;-57
2022/10/11 14:33:39;;;;;;;7.25;1.25;;;;;;;;;;5083573;28;20060;-57
2022/10/11 14:36:05;;;;;;;6.28;1.38;;;;;;;;;;5083820;28;20081;-56
2022/10/11 14:38:30;;;;;;;4.55;0.95;;;;;;;;;;5079295;28;20040;-56
2022/10/11 14:40:55;;;;;;;7.28;1.63;;;;;;;;;;5078476;28;20067;-56
2022/10/11 14:43:21;;;;;;;4.80;1.30;;;;;;;;;;5080684;28;20503;-56
2022/10/11 14:45:46;;;;;;;6.53;1.40;;;;;;;;;;5083219;28;20048;-55
2022/10/11 14:48:11;;;;;;;4.82;1.15;;;;;;;;;;5083190;28;20040;-55
2022/10/11 14:50:49;;;;;;;6.68;1.30;;;;;;;;;;5083986;28;20482;-57
2022/10/11 14:53:15;;;;;;;5.93;0.98;;;;;;;;;;5083673;28;20055;-54
2022/10/11 14:55:41;;;;;;;6.03;1.00;;;;;;;;;;5083376;28;20044;-58
2022/10/11 14:58:08;;;;;;;4.65;1.00;;;;;;;;;;5083760;28;20178;-58
2022/10/11 15:00:34;;;;;;;5.80;1.00;;;;;;;;;;5085511;28;20433;-57
2022/10/11 15:03:00;;;;;;;5.47;1.05;;;;;;;;;;5081770;28;20473;-56